Terminal Aerodrome Forecast
Issued by NWS Tuscon, AZ

Home | Current Version | Previous Version | Text Only | Print | Product List | Glossary On
Versions: 1 2 3 4 5 6 7 8 9 10 11 12 13 14 15 16 17 18 19 20 21
000
FTUS45 KTWC 311140
TAFTUS
TAF
KTUS 311140Z 3112/0112 15008KT P6SM SCT120 BKN200
     FM311500 13010KT P6SM VCSH BKN100 OVC180
     FM312000 25010KT P6SM SCT080 BKN110
     FM312300 27012KT P6SM VCTS BKN070CB BKN100
     FM010300 20007KT P6SM SCT070 BKN100
     FM010700 14007KT P6SM SCT120 BKN200=

USA.gov is the U.S. government's official web portal to all federal, state and local government web resources and services.